Terminal Aerodrome Forecast
Issued by NWS El Paso, TX

Home | Current Version | Previous Version | Text Only | Print | Product List | Glossary On
Versions: 1 2 3 4 5 6 7 8 9 10 11 12 13 14 15 16 17 18 19
567
FTUS44 KEPZ 162326
TAFELP
TAF
KELP 162326Z 1700/1724 23007KT P6SM FEW040 SCT120
     FM171000 04007KT P6SM FEW015 BKN050 BKN120
     FM171100 03004KT 3SM BR SCT004 SCT015 BKN050
     FM171500 05007KT P6SM FEW020 SCT050 BKN100
     FM172000 06008KT P6SM VCSH BKN050 BKN110=

USA.gov is the U.S. government's official web portal to all federal, state and local government web resources and services.